createdAt,value
2022-08-20T00:00:50.087Z,17.4
2022-08-20T00:02:50.116Z,17.3
2022-08-20T00:04:50.621Z,17.3
2022-08-20T00:06:50.755Z,17.3
2022-08-20T00:08:50.682Z,17.3
2022-08-20T00:10:56.155Z,17.3
2022-08-20T00:12:50.063Z,17.4
2022-08-20T00:14:50.097Z,17.4
2022-08-20T00:16:50.362Z,17.4
2022-08-20T00:18:50.508Z,17.4
2022-08-20T00:20:50.399Z,17.4
2022-08-20T00:22:50.373Z,17.4
2022-08-20T00:24:50.711Z,17.3
2022-08-20T00:26:53.337Z,17.3
2022-08-20T00:28:50.444Z,17.3
2022-08-20T00:30:50.453Z,17.3
2022-08-20T00:32:50.121Z,17.3
2022-08-20T00:34:50.735Z,17.3
2022-08-20T00:36:50.284Z,17.3
2022-08-20T00:38:50.324Z,17.3
2022-08-20T00:40:50.346Z,17.2
2022-08-20T00:42:50.385Z,17.2
2022-08-20T00:44:50.365Z,17.2
2022-08-20T00:46:49.954Z,17.2
2022-08-20T00:48:50.845Z,17.2
2022-08-20T00:50:50.936Z,17.2
2022-08-20T00:52:50.579Z,17.2
2022-08-20T00:54:50.661Z,17.2
2022-08-20T00:56:49.966Z,17.2
2022-08-20T00:58:50.904Z,17.2
2022-08-20T01:00:50.805Z,17.1
2022-08-20T01:02:50.831Z,17.1
2022-08-20T01:04:50.331Z,17.1
2022-08-20T01:06:50.642Z,17.1
2022-08-20T01:08:50.843Z,17.1
2022-08-20T01:10:50.891Z,17.1
2022-08-20T01:13:00.135Z,17.1
2022-08-20T01:14:50.109Z,17.1
2022-08-20T01:16:50.330Z,17.1
2022-08-20T01:18:50.202Z,17.1
2022-08-20T01:20:50.218Z,17.1
2022-08-20T01:22:50.501Z,17.1
2022-08-20T01:24:50.341Z,17.0
2022-08-20T01:26:50.691Z,17.0
2022-08-20T01:28:50.597Z,17.0
2022-08-20T01:30:50.824Z,17.0
2022-08-20T01:32:50.816Z,17.0
2022-08-20T01:34:50.371Z,17.0
2022-08-20T01:36:50.841Z,17.0
2022-08-20T01:38:55.216Z,17.0
2022-08-20T01:40:50.576Z,17.0
2022-08-20T01:43:00.224Z,17.0
2022-08-20T01:44:50.371Z,17.0
2022-08-20T01:46:51.328Z,17.0
2022-08-20T01:48:50.557Z,17.0
2022-08-20T01:50:50.588Z,17.0
2022-08-20T01:52:50.625Z,17.0
2022-08-20T01:54:50.511Z,17.0
2022-08-20T01:56:50.705Z,17.0
2022-08-20T01:58:59.444Z,17.0
2022-08-20T02:00:50.449Z,17.0
2022-08-20T02:02:50.396Z,17.0
2022-08-20T02:04:50.596Z,17.0
2022-08-20T02:06:58.368Z,17.0
2022-08-20T02:08:50.750Z,17.0
2022-08-20T02:10:50.848Z,17.0
2022-08-20T02:12:53.516Z,17.0
2022-08-20T02:14:50.624Z,17.0
2022-08-20T02:16:55.974Z,17.0
2022-08-20T02:18:50.044Z,17.0
2022-08-20T02:20:49.931Z,17.0
2022-08-20T02:22:50.990Z,17.0
2022-08-20T02:24:49.927Z,16.9
2022-08-20T02:26:50.110Z,16.9
2022-08-20T02:28:50.914Z,16.9
2022-08-20T02:30:50.862Z,16.9
2022-08-20T02:32:57.962Z,16.9
2022-08-20T02:34:50.410Z,16.9
2022-08-20T02:36:50.648Z,16.9
2022-08-20T02:38:50.591Z,16.9
2022-08-20T02:40:50.695Z,16.9
2022-08-20T02:42:50.885Z,16.9
2022-08-20T02:44:50.773Z,16.9
2022-08-20T02:46:49.996Z,16.9
2022-08-20T02:48:53.011Z,16.9
2022-08-20T02:50:50.181Z,16.9
2022-08-20T02:52:52.592Z,16.9
2022-08-20T02:54:50.433Z,16.9
2022-08-20T02:56:50.780Z,16.9
2022-08-20T02:58:50.716Z,16.9
2022-08-20T03:00:50.876Z,16.9
2022-08-20T03:02:50.632Z,16.9
2022-08-20T03:04:50.074Z,16.9
2022-08-20T03:06:52.747Z,16.9
2022-08-20T03:08:50.920Z,16.9
2022-08-20T03:10:50.828Z,16.9
2022-08-20T03:12:50.834Z,16.9
2022-08-20T03:14:50.769Z,16.9
2022-08-20T03:16:50.199Z,16.9
2022-08-20T03:18:52.716Z,16.8
2022-08-20T03:20:52.696Z,16.8
2022-08-20T03:22:50.855Z,16.8
2022-08-20T03:24:54.394Z,16.8
2022-08-20T03:26:50.908Z,16.8
2022-08-20T03:28:50.713Z,16.8
2022-08-20T03:30:50.664Z,16.8
2022-08-20T03:32:50.593Z,16.8
2022-08-20T03:34:50.230Z,16.8
2022-08-20T03:36:50.445Z,16.8
2022-08-20T03:38:50.501Z,16.8
2022-08-20T03:40:50.453Z,16.8
2022-08-20T03:42:50.384Z,16.8
2022-08-20T03:44:59.757Z,16.8
2022-08-20T03:46:49.891Z,16.8
2022-08-20T03:49:01.078Z,16.8
2022-08-20T03:50:49.930Z,16.8
2022-08-20T03:52:50.261Z,16.8
2022-08-20T03:54:50.096Z,16.8
2022-08-20T03:56:50.282Z,16.8
2022-08-20T03:58:50.070Z,16.8
2022-08-20T04:00:50.177Z,16.8
2022-08-20T04:02:50.109Z,16.8
2022-08-20T04:04:50.456Z,16.8
2022-08-20T04:06:50.621Z,16.7
2022-08-20T04:08:50.470Z,16.7
2022-08-20T04:10:50.634Z,16.7
2022-08-20T04:12:55.157Z,16.7
2022-08-20T04:14:50.463Z,16.7
2022-08-20T04:16:51.616Z,16.7
2022-08-20T04:19:03.025Z,16.7
2022-08-20T04:20:50.256Z,16.7
2022-08-20T04:23:00.026Z,16.7
2022-08-20T04:24:50.003Z,16.7
2022-08-20T04:26:50.432Z,16.7
2022-08-20T04:28:49.982Z,16.7
2022-08-20T04:30:52.371Z,16.7
2022-08-20T04:32:50.983Z,16.7
2022-08-20T04:34:50.458Z,16.7
2022-08-20T04:36:50.897Z,16.7
2022-08-20T04:38:51.531Z,16.7
2022-08-20T04:40:50.460Z,16.7
2022-08-20T04:42:54.323Z,16.7
2022-08-20T04:44:50.599Z,16.7
2022-08-20T04:46:50.871Z,16.7
2022-08-20T04:48:51.373Z,16.7
2022-08-20T04:50:50.472Z,16.7
2022-08-20T04:52:50.730Z,16.7
2022-08-20T04:54:50.827Z,16.7
2022-08-20T04:56:50.293Z,16.7
2022-08-20T04:58:50.313Z,16.7
2022-08-20T05:00:50.687Z,16.7
2022-08-20T05:02:50.912Z,16.7
2022-08-20T05:04:50.122Z,16.7
2022-08-20T05:06:50.280Z,16.8
2022-08-20T05:08:50.218Z,16.8
2022-08-20T05:11:35.079Z,16.7
2022-08-20T05:12:57.694Z,16.8
2022-08-20T05:14:50.593Z,16.8
2022-08-20T05:16:50.870Z,16.8
2022-08-20T05:18:53.343Z,16.8
2022-08-20T05:20:50.567Z,16.8
2022-08-20T05:22:50.463Z,16.8
2022-08-20T05:24:52.929Z,16.8
2022-08-20T05:26:50.294Z,16.8
2022-08-20T05:28:59.792Z,16.8
2022-08-20T05:30:50.880Z,16.8
2022-08-20T05:32:49.929Z,16.8
2022-08-20T05:34:50.292Z,16.8
2022-08-20T05:36:50.483Z,16.8
2022-08-20T05:38:51.020Z,16.8
2022-08-20T05:40:50.166Z,16.8
2022-08-20T05:42:50.061Z,16.8
2022-08-20T05:44:50.051Z,16.9
2022-08-20T05:46:50.224Z,16.9
2022-08-20T05:48:50.099Z,16.9
2022-08-20T05:50:50.070Z,16.9
2022-08-20T05:52:50.028Z,16.9
2022-08-20T05:54:50.166Z,16.9
2022-08-20T05:56:50.694Z,17.0
2022-08-20T05:58:52.534Z,17.0
2022-08-20T06:00:50.735Z,17.0
2022-08-20T06:02:50.754Z,17.0
2022-08-20T06:04:56.742Z,17.0
2022-08-20T06:06:49.960Z,17.0
2022-08-20T06:08:51.324Z,17.0
2022-08-20T06:10:50.141Z,17.1
2022-08-20T06:12:50.273Z,17.2
2022-08-20T06:14:50.156Z,17.2
2022-08-20T06:16:59.470Z,17.3
2022-08-20T06:18:50.486Z,17.3
2022-08-20T06:20:50.694Z,17.4
2022-08-20T06:22:50.985Z,17.4
2022-08-20T06:24:50.044Z,17.4
2022-08-20T06:26:50.498Z,17.5
2022-08-20T06:28:54.600Z,17.6
2022-08-20T06:30:50.657Z,17.7
2022-08-20T06:32:50.517Z,17.7
2022-08-20T06:34:52.766Z,17.7
2022-08-20T06:36:50.796Z,17.8
2022-08-20T06:38:50.623Z,17.8
2022-08-20T06:40:50.586Z,17.9
2022-08-20T06:42:50.463Z,18.0
2022-08-20T06:44:50.641Z,18.0
2022-08-20T06:46:50.653Z,18.2
2022-08-20T06:48:50.697Z,18.3
2022-08-20T06:50:50.596Z,18.4
2022-08-20T06:52:53.626Z,18.4
2022-08-20T06:54:50.633Z,18.6
2022-08-20T06:56:49.988Z,18.6
2022-08-20T06:58:50.110Z,18.7
2022-08-20T07:00:50.170Z,18.7
2022-08-20T07:02:50.407Z,18.8
2022-08-20T07:04:49.905Z,18.8
2022-08-20T07:06:50.076Z,18.8
2022-08-20T07:08:50.064Z,19.0
2022-08-20T07:10:49.984Z,19.0
2022-08-20T07:12:50.971Z,19.0
2022-08-20T07:14:50.023Z,19.1
2022-08-20T07:16:50.385Z,19.1
2022-08-20T07:18:50.411Z,19.2
2022-08-20T07:20:51.225Z,19.2
2022-08-20T07:22:50.871Z,19.4
2022-08-20T07:24:50.722Z,19.4
2022-08-20T07:26:50.163Z,19.4
2022-08-20T07:28:50.096Z,19.5
2022-08-20T07:30:58.299Z,19.5
2022-08-20T07:32:50.185Z,19.6
2022-08-20T07:34:50.925Z,19.8
2022-08-20T07:36:50.248Z,19.8
2022-08-20T07:38:50.171Z,19.8
2022-08-20T07:40:50.221Z,19.9
2022-08-20T07:42:50.339Z,19.9
2022-08-20T07:44:50.074Z,20.0
2022-08-20T07:46:50.396Z,20.0
2022-08-20T07:48:51.050Z,20.0
2022-08-20T07:50:49.926Z,20.2
2022-08-20T07:52:50.237Z,20.2
2022-08-20T07:54:50.097Z,20.3
2022-08-20T07:56:50.215Z,20.4
2022-08-20T07:58:50.814Z,20.4
2022-08-20T08:00:58.723Z,20.4
2022-08-20T08:02:50.414Z,20.4
2022-08-20T08:04:50.806Z,20.5
2022-08-20T08:06:50.212Z,20.5
2022-08-20T08:08:50.332Z,20.5
2022-08-20T08:10:50.634Z,20.4
2022-08-20T08:12:50.543Z,20.4
2022-08-20T08:14:50.659Z,20.4
2022-08-20T08:16:50.019Z,20.5
2022-08-20T08:18:50.178Z,20.5
2022-08-20T08:20:50.153Z,20.5
2022-08-20T08:22:50.446Z,20.6
2022-08-20T08:24:58.153Z,20.7
2022-08-20T08:26:50.596Z,20.8
2022-08-20T08:28:50.741Z,20.8
2022-08-20T08:30:50.702Z,20.8
2022-08-20T08:32:50.662Z,20.9
2022-08-20T08:34:50.117Z,20.9
2022-08-20T08:36:50.335Z,20.9
2022-08-20T08:38:50.381Z,20.9
2022-08-20T08:41:00.598Z,20.9
2022-08-20T08:42:50.540Z,21.0
2022-08-20T08:44:50.571Z,21.0
2022-08-20T08:46:50.891Z,21.0
2022-08-20T08:48:50.884Z,21.0
2022-08-20T08:50:55.142Z,21.0
2022-08-20T08:52:50.446Z,21.0
2022-08-20T08:54:50.596Z,21.0
2022-08-20T08:56:51.177Z,21.0
2022-08-20T08:58:49.931Z,21.1
2022-08-20T09:01:09.783Z,21.1
2022-08-20T09:02:50.347Z,21.1
2022-08-20T09:04:50.125Z,21.1
2022-08-20T09:06:52.783Z,21.1
2022-08-20T09:08:50.862Z,21.1
2022-08-20T09:10:50.876Z,21.1
2022-08-20T09:12:52.726Z,21.1
2022-08-20T09:14:50.679Z,21.2
2022-08-20T09:16:53.909Z,21.2
2022-08-20T09:18:49.953Z,21.2
2022-08-20T09:20:50.743Z,21.3
2022-08-20T09:22:52.603Z,21.3
2022-08-20T09:24:50.554Z,21.3
2022-08-20T09:26:50.796Z,21.4
2022-08-20T09:28:52.695Z,21.4
2022-08-20T09:30:51.727Z,21.5
2022-08-20T09:32:50.773Z,21.5
2022-08-20T09:34:52.979Z,21.5
2022-08-20T09:36:50.443Z,21.6
2022-08-20T09:38:50.577Z,21.7
2022-08-20T09:40:50.476Z,21.8
2022-08-20T09:42:50.518Z,21.8
2022-08-20T09:44:50.497Z,21.8
2022-08-20T09:46:50.825Z,21.9
2022-08-20T09:48:50.763Z,22.0
2022-08-20T09:50:50.948Z,22.0
2022-08-20T09:52:53.978Z,22.1
2022-08-20T09:54:50.569Z,22.1
2022-08-20T09:56:49.967Z,22.2
2022-08-20T09:58:50.016Z,22.2
2022-08-20T10:00:50.130Z,22.3
2022-08-20T10:02:50.038Z,22.4
2022-08-20T10:04:51.736Z,22.4
2022-08-20T10:06:50.539Z,22.5
2022-08-20T10:08:50.438Z,22.6
2022-08-20T10:10:50.368Z,22.8
2022-08-20T10:12:55.460Z,22.8
2022-08-20T10:14:50.734Z,22.8
2022-08-20T10:16:49.912Z,22.9
2022-08-20T10:18:50.867Z,22.9
2022-08-20T10:20:50.626Z,22.9
2022-08-20T10:22:50.892Z,22.9
2022-08-20T10:24:50.793Z,22.9
2022-08-20T10:26:50.255Z,22.9
2022-08-20T10:28:50.085Z,22.9
2022-08-20T10:30:50.214Z,22.9
2022-08-20T10:32:50.103Z,23.0
2022-08-20T10:34:50.506Z,23.0
2022-08-20T10:36:50.795Z,23.0
2022-08-20T10:38:50.627Z,23.0
2022-08-20T10:40:53.096Z,23.1
2022-08-20T10:42:50.006Z,23.2
2022-08-20T10:44:50.168Z,23.3
2022-08-20T10:46:57.617Z,23.3
2022-08-20T10:48:50.658Z,23.4
2022-08-20T10:50:50.571Z,23.4
2022-08-20T10:52:53.159Z,23.4
2022-08-20T10:54:49.989Z,23.5
2022-08-20T10:56:50.249Z,23.5
2022-08-20T10:58:50.654Z,23.6
2022-08-20T11:00:50.657Z,23.6
2022-08-20T11:02:50.644Z,23.7
2022-08-20T11:04:50.128Z,23.8
2022-08-20T11:06:50.445Z,23.8
2022-08-20T11:08:53.252Z,23.8
2022-08-20T11:10:50.780Z,23.9
2022-08-20T11:12:50.896Z,23.9
2022-08-20T11:14:49.928Z,24.1
2022-08-20T11:16:49.981Z,24.2
2022-08-20T11:18:50.881Z,24.2
2022-08-20T11:20:50.873Z,24.2
2022-08-20T11:22:49.943Z,24.2
2022-08-20T11:24:50.284Z,24.3
2022-08-20T11:26:50.477Z,24.3
2022-08-20T11:28:50.339Z,24.4
2022-08-20T11:30:50.326Z,24.5
2022-08-20T11:32:50.342Z,24.6
2022-08-20T11:34:50.696Z,24.6
2022-08-20T11:36:50.202Z,24.6
2022-08-20T11:38:50.162Z,24.6
2022-08-20T11:40:50.303Z,24.7
2022-08-20T11:43:16.543Z,24.6
2022-08-20T11:44:50.865Z,24.6
2022-08-20T11:46:50.239Z,24.6
2022-08-20T11:48:50.905Z,24.5
2022-08-20T11:50:50.771Z,24.4
2022-08-20T11:52:51.344Z,24.3
2022-08-20T11:54:55.436Z,24.2
2022-08-20T11:56:50.742Z,24.2
2022-08-20T11:58:50.777Z,24.2
2022-08-20T12:00:50.777Z,24.1
2022-08-20T12:02:57.178Z,24.1
2022-08-20T12:04:50.496Z,24.1
2022-08-20T12:06:50.787Z,24.1
2022-08-20T12:08:50.806Z,24.0
2022-08-20T12:10:50.877Z,24.1
2022-08-20T12:12:50.880Z,24.1
2022-08-20T12:14:50.139Z,24.1
2022-08-20T12:16:50.359Z,24.2
2022-08-20T12:18:50.479Z,24.2
2022-08-20T12:20:51.242Z,24.4
2022-08-20T12:22:50.516Z,24.4
2022-08-20T12:24:50.785Z,24.3
2022-08-20T12:26:50.019Z,24.3
2022-08-20T12:28:50.028Z,24.3
2022-08-20T12:30:50.069Z,24.3
2022-08-20T12:32:50.649Z,24.3
2022-08-20T12:34:49.946Z,24.3
2022-08-20T12:36:50.283Z,24.3
2022-08-20T12:38:50.134Z,24.3
2022-08-20T12:40:50.090Z,24.3
2022-08-20T12:42:50.299Z,24.3
2022-08-20T12:44:50.401Z,24.2
2022-08-20T12:46:50.648Z,24.2
2022-08-20T12:48:50.670Z,24.2
2022-08-20T12:50:50.935Z,24.2
2022-08-20T12:52:51.013Z,24.2
2022-08-20T12:54:50.057Z,24.2
2022-08-20T12:56:50.586Z,24.2
2022-08-20T12:58:50.913Z,24.2
2022-08-20T13:00:51.822Z,24.2
2022-08-20T13:02:50.942Z,24.2
2022-08-20T13:04:50.134Z,24.2
2022-08-20T13:06:51.582Z,24.2
2022-08-20T13:08:50.745Z,24.1
2022-08-20T13:10:51.251Z,24.0
2022-08-20T13:12:50.452Z,24.0
2022-08-20T13:14:50.369Z,24.1
2022-08-20T13:16:55.149Z,24.0
2022-08-20T13:18:50.023Z,24.0
2022-08-20T13:20:50.044Z,24.0
2022-08-20T13:22:51.003Z,24.0
2022-08-20T13:24:50.076Z,23.9
2022-08-20T13:26:50.359Z,23.9
2022-08-20T13:28:50.340Z,23.8
2022-08-20T13:30:50.309Z,23.8
2022-08-20T13:32:50.401Z,23.9
2022-08-20T13:34:50.205Z,24.0
2022-08-20T13:36:50.423Z,24.0
2022-08-20T13:38:50.353Z,24.0
2022-08-20T13:40:50.213Z,24.0
2022-08-20T13:42:50.568Z,24.2
2022-08-20T13:44:50.561Z,24.2
2022-08-20T13:46:52.774Z,24.3
2022-08-20T13:48:50.710Z,24.3
2022-08-20T13:50:50.783Z,24.3
2022-08-20T13:52:51.504Z,24.3
2022-08-20T13:54:50.511Z,24.4
2022-08-20T13:56:50.601Z,24.4
2022-08-20T13:58:53.482Z,24.4
2022-08-20T14:00:50.437Z,24.4
2022-08-20T14:02:50.589Z,24.5
2022-08-20T14:04:50.076Z,24.5
2022-08-20T14:06:50.335Z,24.5
2022-08-20T14:08:50.188Z,24.5
2022-08-20T14:10:52.209Z,24.4
2022-08-20T14:12:50.361Z,24.4
2022-08-20T14:14:51.950Z,24.4
2022-08-20T14:16:50.261Z,24.3
2022-08-20T14:18:53.316Z,24.3
2022-08-20T14:20:50.258Z,24.3
2022-08-20T14:22:50.426Z,24.2
2022-08-20T14:24:50.492Z,24.2
2022-08-20T14:26:50.774Z,24.2
2022-08-20T14:28:50.785Z,24.2
2022-08-20T14:30:54.095Z,24.2
2022-08-20T14:32:50.336Z,24.2
2022-08-20T14:34:50.683Z,24.2
2022-08-20T14:36:51.018Z,24.2
2022-08-20T14:38:50.049Z,24.2
2022-08-20T14:40:50.097Z,24.2
2022-08-20T14:44:50.426Z,24.4
2022-08-20T14:46:50.608Z,24.4
2022-08-20T14:48:53.903Z,24.4
2022-08-20T14:50:50.774Z,24.6
2022-08-20T14:52:50.369Z,24.6
2022-08-20T14:54:50.333Z,24.6
2022-08-20T14:56:50.645Z,24.7
2022-08-20T14:58:50.539Z,24.8
2022-08-20T15:00:50.677Z,24.9
2022-08-20T15:02:50.998Z,24.9
2022-08-20T15:04:56.078Z,25.0
2022-08-20T15:06:54.757Z,25.0
2022-08-20T15:08:49.983Z,25.1
2022-08-20T15:10:50.007Z,25.2
2022-08-20T15:12:51.170Z,25.2
2022-08-20T15:14:51.305Z,25.3
2022-08-20T15:16:50.472Z,25.3
2022-08-20T15:19:00.151Z,25.3
2022-08-20T15:20:50.051Z,25.2
2022-08-20T15:22:50.004Z,25.2
2022-08-20T15:24:58.042Z,25.1
2022-08-20T15:26:50.155Z,25.1
2022-08-20T15:28:50.139Z,25.0
2022-08-20T15:30:50.096Z,25.0
2022-08-20T15:32:55.733Z,25.0
2022-08-20T15:34:50.641Z,24.9
2022-08-20T15:36:50.064Z,24.8
2022-08-20T15:38:50.264Z,24.7
2022-08-20T15:40:50.193Z,24.6
2022-08-20T15:42:50.638Z,24.6
2022-08-20T15:44:50.475Z,24.4
2022-08-20T15:46:50.795Z,24.3
2022-08-20T15:48:50.686Z,24.2
2022-08-20T15:50:50.904Z,24.0
2022-08-20T15:52:50.783Z,23.9
2022-08-20T15:54:58.675Z,23.9
2022-08-20T15:56:50.454Z,23.7
2022-08-20T15:58:50.435Z,23.7
2022-08-20T16:00:50.675Z,23.5
2022-08-20T16:02:50.970Z,23.4
2022-08-20T16:04:50.267Z,23.4
2022-08-20T16:06:50.791Z,23.3
2022-08-20T16:08:50.731Z,23.2
2022-08-20T16:10:50.793Z,23.0
2022-08-20T16:12:50.916Z,23.0
2022-08-20T16:14:50.806Z,22.9
2022-08-20T16:17:01.958Z,22.8
2022-08-20T16:18:50.447Z,22.8
2022-08-20T16:20:50.424Z,22.6
2022-08-20T16:22:56.991Z,22.6
2022-08-20T16:24:50.421Z,22.4
2022-08-20T16:26:50.623Z,22.5
2022-08-20T16:28:50.697Z,22.4
2022-08-20T16:30:50.682Z,22.4
2022-08-20T16:32:54.185Z,22.4
2022-08-20T16:34:49.922Z,22.3
2022-08-20T16:37:04.777Z,22.3
2022-08-20T16:38:50.194Z,22.3
2022-08-20T16:40:50.381Z,22.2
2022-08-20T16:42:50.490Z,22.2
2022-08-20T16:44:50.568Z,22.2
2022-08-20T16:46:50.041Z,22.1
2022-08-20T16:48:49.939Z,22.1
2022-08-20T16:50:50.859Z,22.1
2022-08-20T16:52:50.935Z,22.0
2022-08-20T16:54:50.877Z,22.0
2022-08-20T16:56:54.705Z,21.9
2022-08-20T16:58:50.794Z,21.9
2022-08-20T17:00:50.954Z,21.9
2022-08-20T17:02:50.417Z,21.9
2022-08-20T17:05:00.937Z,21.9
2022-08-20T17:06:53.129Z,21.9
2022-08-20T17:08:51.271Z,21.9
2022-08-20T17:10:50.230Z,21.8
2022-08-20T17:12:50.459Z,21.8
2022-08-20T17:14:50.804Z,21.8
2022-08-20T17:16:50.194Z,21.8
2022-08-20T17:18:50.320Z,21.8
2022-08-20T17:20:50.225Z,21.8
2022-08-20T17:22:50.442Z,21.8
2022-08-20T17:24:50.520Z,21.8
2022-08-20T17:26:57.048Z,21.8
2022-08-20T17:28:49.991Z,21.8
2022-08-20T17:30:49.968Z,21.8
2022-08-20T17:32:59.070Z,21.8
2022-08-20T17:34:50.732Z,21.7
2022-08-20T17:36:49.963Z,21.7
2022-08-20T17:38:52.204Z,21.7
2022-08-20T17:40:50.069Z,21.8
2022-08-20T17:42:50.173Z,21.7
2022-08-20T17:44:50.278Z,21.6
2022-08-20T17:46:50.599Z,21.6
2022-08-20T17:48:50.455Z,21.6
2022-08-20T17:50:50.399Z,21.6
2022-08-20T17:52:50.616Z,21.5
2022-08-20T17:54:50.696Z,21.5
2022-08-20T17:56:50.159Z,21.4
2022-08-20T17:59:03.661Z,21.4
2022-08-20T18:00:50.494Z,21.4
2022-08-20T18:02:50.638Z,21.4
2022-08-20T18:04:52.841Z,21.3
2022-08-20T18:06:50.091Z,21.3
2022-08-20T18:08:50.227Z,21.2
2022-08-20T18:10:50.280Z,21.2
2022-08-20T18:12:50.314Z,21.2
2022-08-20T18:14:50.243Z,21.2
2022-08-20T18:16:50.441Z,21.1
2022-08-20T18:18:57.792Z,21.1
2022-08-20T18:20:50.895Z,21.0
2022-08-20T18:22:51.167Z,21.0
2022-08-20T18:24:50.234Z,21.0
2022-08-20T18:26:51.903Z,21.0
2022-08-20T18:28:50.402Z,21.0
2022-08-20T18:30:50.518Z,21.0
2022-08-20T18:32:50.821Z,21.0
2022-08-20T18:34:50.304Z,21.0
2022-08-20T18:36:50.500Z,20.9
2022-08-20T18:38:50.528Z,20.9
2022-08-20T18:40:55.707Z,20.8
2022-08-20T18:42:50.990Z,20.8
2022-08-20T18:44:51.498Z,20.8
2022-08-20T18:46:50.760Z,20.6
2022-08-20T18:48:50.851Z,20.6
2022-08-20T18:50:50.067Z,20.6
2022-08-20T18:52:50.287Z,20.5
2022-08-20T18:54:50.373Z,20.4
2022-08-20T18:56:50.553Z,20.3
2022-08-20T18:58:52.583Z,20.3
2022-08-20T19:00:50.541Z,20.2
2022-08-20T19:02:50.786Z,20.2
2022-08-20T19:05:03.175Z,20.2
2022-08-20T19:06:58.199Z,20.0
2022-08-20T19:08:50.299Z,20.0
2022-08-20T19:10:50.267Z,20.0
2022-08-20T19:12:50.501Z,19.9
2022-08-20T19:14:50.512Z,19.9
2022-08-20T19:16:50.869Z,19.8
2022-08-20T19:18:50.839Z,19.8
2022-08-20T19:20:50.751Z,19.7
2022-08-20T19:22:50.838Z,19.7
2022-08-20T19:24:57.204Z,19.6
2022-08-20T19:26:50.390Z,19.6
2022-08-20T19:28:50.486Z,19.4
2022-08-20T19:30:50.445Z,19.4
2022-08-20T19:32:51.834Z,19.4
2022-08-20T19:34:50.441Z,19.4
2022-08-20T19:36:50.646Z,19.3
2022-08-20T19:38:50.497Z,19.3
2022-08-20T19:41:11.915Z,19.2
2022-08-20T19:42:50.092Z,19.2
2022-08-20T19:44:50.113Z,19.2
2022-08-20T19:46:50.387Z,19.1
2022-08-20T19:48:50.303Z,19.1
2022-08-20T19:50:50.280Z,19.1
2022-08-20T19:52:50.580Z,19.0
2022-08-20T19:54:50.619Z,19.0
2022-08-20T19:56:50.005Z,19.0
2022-08-20T19:58:50.206Z,19.0
2022-08-20T20:00:50.377Z,18.9
2022-08-20T20:02:50.684Z,18.9
2022-08-20T20:04:58.575Z,18.9
2022-08-20T20:06:50.071Z,18.9
2022-08-20T20:08:50.084Z,18.8
2022-08-20T20:10:50.049Z,18.8
2022-08-20T20:12:50.138Z,18.7
2022-08-20T20:14:50.711Z,18.7
2022-08-20T20:16:50.140Z,18.7
2022-08-20T20:19:26.598Z,18.7
2022-08-20T20:20:58.480Z,18.6
2022-08-20T20:22:50.498Z,18.6
2022-08-20T20:24:50.847Z,18.6
2022-08-20T20:26:50.151Z,18.5
2022-08-20T20:28:50.108Z,18.5
2022-08-20T20:30:50.133Z,18.5
2022-08-20T20:32:50.367Z,18.4
2022-08-20T20:34:56.508Z,18.4
2022-08-20T20:36:50.765Z,18.4
2022-08-20T20:38:50.744Z,18.3
2022-08-20T20:40:50.674Z,18.2
2022-08-20T20:42:51.056Z,18.2
2022-08-20T20:44:50.022Z,18.2
2022-08-20T20:46:50.549Z,18.2
2022-08-20T20:48:50.593Z,18.2
2022-08-20T20:50:50.818Z,18.2
2022-08-20T20:52:51.040Z,18.2
2022-08-20T20:54:50.081Z,18.1
2022-08-20T20:56:50.649Z,18.1
2022-08-20T20:58:56.547Z,18.1
2022-08-20T21:00:50.593Z,18.0
2022-08-20T21:02:50.823Z,18.0
2022-08-20T21:04:50.219Z,18.0
2022-08-20T21:06:50.799Z,18.0
2022-08-20T21:08:49.959Z,18.0
2022-08-20T21:10:49.921Z,18.0
2022-08-20T21:12:53.907Z,18.0
2022-08-20T21:14:50.044Z,18.0
2022-08-20T21:16:50.364Z,18.0
2022-08-20T21:18:50.195Z,18.0
2022-08-20T21:20:50.015Z,17.9
2022-08-20T21:22:50.996Z,17.9
2022-08-20T21:24:50.366Z,17.9
2022-08-20T21:26:50.854Z,17.9
2022-08-20T21:28:50.780Z,17.9
2022-08-20T21:30:58.946Z,17.9
2022-08-20T21:32:51.315Z,17.9
2022-08-20T21:34:50.196Z,17.8
2022-08-20T21:36:50.375Z,17.8
2022-08-20T21:38:50.303Z,17.8
2022-08-20T21:40:50.276Z,17.8
2022-08-20T21:42:51.700Z,17.8
2022-08-20T21:44:50.587Z,17.8
2022-08-20T21:46:50.797Z,17.8
2022-08-20T21:48:50.816Z,17.7
2022-08-20T21:50:49.929Z,17.7
2022-08-20T21:53:00.586Z,17.7
2022-08-20T21:54:50.015Z,17.7
2022-08-20T21:56:50.300Z,17.6
2022-08-20T21:58:55.409Z,17.6
2022-08-20T22:00:50.650Z,17.6
2022-08-20T22:02:50.796Z,17.6
2022-08-20T22:04:54.427Z,17.6
2022-08-20T22:06:50.796Z,17.6
2022-08-20T22:08:50.796Z,17.6
2022-08-20T22:10:50.133Z,17.6
2022-08-20T22:12:50.132Z,17.6
2022-08-20T22:14:50.172Z,17.6
2022-08-20T22:16:50.344Z,17.5
2022-08-20T22:18:50.530Z,17.4
2022-08-20T22:20:50.572Z,17.4
2022-08-20T22:22:50.753Z,17.4
2022-08-20T22:24:50.779Z,17.4
2022-08-20T22:26:50.101Z,17.4
2022-08-20T22:28:51.799Z,17.4
2022-08-20T22:30:50.879Z,17.4
2022-08-20T22:33:00.830Z,17.3
2022-08-20T22:34:50.177Z,17.3
2022-08-20T22:36:50.580Z,17.2
2022-08-20T22:38:55.297Z,17.2
2022-08-20T22:40:50.441Z,17.2
2022-08-20T22:42:50.665Z,17.2
2022-08-20T22:44:50.613Z,17.2
2022-08-20T22:46:56.176Z,17.2
2022-08-20T22:48:50.916Z,17.1
2022-08-20T22:50:50.003Z,17.1
2022-08-20T22:52:49.942Z,17.0
2022-08-20T22:54:51.276Z,17.0
2022-08-20T22:56:53.149Z,17.0
2022-08-20T22:58:51.064Z,17.0
2022-08-20T23:00:55.568Z,17.0
2022-08-20T23:02:49.980Z,17.0
2022-08-20T23:04:52.156Z,16.9
2022-08-20T23:06:50.325Z,16.9
2022-08-20T23:08:50.761Z,16.9
2022-08-20T23:10:53.549Z,16.9
2022-08-20T23:12:50.648Z,16.8
2022-08-20T23:14:50.618Z,16.8
2022-08-20T23:16:50.811Z,16.8
2022-08-20T23:18:50.758Z,16.8
2022-08-20T23:20:49.981Z,16.7
2022-08-20T23:22:55.171Z,16.7
2022-08-20T23:24:50.219Z,16.7
2022-08-20T23:26:53.871Z,16.7
2022-08-20T23:28:50.827Z,16.7
2022-08-20T23:30:49.984Z,16.7
2022-08-20T23:32:49.958Z,16.6
2022-08-20T23:34:50.478Z,16.6
2022-08-20T23:36:50.937Z,16.7
2022-08-20T23:38:50.116Z,16.7
2022-08-20T23:40:50.172Z,16.6
2022-08-20T23:42:50.432Z,16.6
2022-08-20T23:44:50.359Z,16.6
2022-08-20T23:46:54.931Z,16.6
2022-08-20T23:48:50.854Z,16.6
2022-08-20T23:50:50.722Z,16.6
2022-08-20T23:52:52.180Z,16.6
2022-08-20T23:54:50.115Z,16.6
2022-08-20T23:56:50.459Z,16.6
2022-08-20T23:58:50.494Z,16.6
